New Richmond, IN (47967)

1:47 PM EDT on September 25, 2016 (GMT -0400)
Hudson Farms | | Change Station

Elev 787 ft 40.16 °N, 86.88 °W | Updated 4 seconds ago

Clear
Clear
87.3 °F
Feels Like 91 °F
N
10.1
Wind Variable Wind from SSW
Gusts 10.1 mph

Today
High -- | Low -- °F
--% Chance of Precip.
Yesterday
High -- | Low -- °F
Precip. -- in
Pressure 30.06 in
Visibility 10.0 miles
Clouds Clear
Heat Index 91 °F
Dew Point 68 °F
Humidity 52%
Rainfall 0.00 in
Snow Depth Not available.
7:38 AM 7:39 PM
Waning Crescent, 26% visible
METAR KLAF 251654Z 00000KT 10SM CLR 28/20 A3007 RMK AO2 SLP177 T02780200
Pressure 30.06 in
Visibility 10.0 miles
Clouds Clear
Heat Index 91 °F
Dew Point 68 °F
Humidity 52%
Rainfall 0.00 in
Snow Depth Not available.
7:38 AM 7:39 PM
Waning Crescent, 26% visible
METAR KLAF 251654Z 00000KT 10SM CLR 28/20 A3007 RMK AO2 SLP177 T02780200

10-Day Weather Forecast

Almanac

Astronomy

Sep. 25, 2016 Rise Set
Actual Time
Civil Twilight
Nautical Twilight
Astronomical Twilight
Moon
Length of Visible Light
Length of Day
Tomorrow will be .
, % of the Moon is Illuminated

Today's Extremes

State Highs State Lows

Community

WunderPhotos

Upload Photos

1,941,674 photos uploaded!

WunderBlog® & News

Nearby

Air Quality

  Air Quality AQ Index Pollutant
Not available.

Snow Depth

Station Depth Elevation

Earthquake Activity

City Distance Mag. Time & Date
Minimum magnitude displayed is 2.5.

Coastal Water Temperatures

Place Temperature

Stations

Nearby Weather Stations

Station Location Temp. Windchill Dew Point Humidity Wind Precip. Elev Updated Type
                   

Watches & Warnings

There are currently no watches in effect.